TAF KCNU
KCNU 072324Z 0800/0824 VRB04KT P6SM OVC200=
METAR KCNU
WC KCNU
WS KCNU
WV KCNU